Time;durP1;ratioP1;P1;durP2;ratioP2;P2;SDS_P1;SDS_P2;PMS_P1;PMS_P2;Temp;Humidity;BMP_temperature;BMP_pressure;BME280_temperature;BME280_humidity;BME280_pressure;Samples;Min_cycle;Max_cycle;Signal;HPM_P1;HPM_P2
2022/06/16 00:01:21;;;;;;;;;10.25;10.25;;;;;23.64;40.87;101436.66;6276292;22;46125;-82
2022/06/16 00:03:49;;;;;;;;;12.00;11.25;;;;;23.63;41.20;101437.59;6276525;22;45304;-81
2022/06/16 00:06:14;;;;;;;;;10.00;10.00;;;;;23.62;40.86;101432.28;6247972;22;45336;-81
2022/06/16 00:08:39;;;;;;;;;9.50;9.25;;;;;23.61;41.10;101435.94;6277287;22;45437;-82
2022/06/16 00:11:17;;;;;;;;;8.00;8.00;;;;;23.59;41.32;101435.13;6280780;22;46290;-81
2022/06/16 00:13:43;;;;;;;;;13.25;12.25;;;;;23.55;41.38;101437.97;6283866;22;45161;-83
2022/06/16 00:16:10;;;;;;;;;12.00;10.00;;;;;23.52;41.11;101443.50;6279867;22;45206;-82
2022/06/16 00:18:37;;;;;;;;;11.50;11.00;;;;;23.48;41.23;101451.75;6253379;22;45208;-83
2022/06/16 00:21:03;;;;;;;;;10.25;10.25;;;;;23.43;41.56;101451.09;6258930;22;47246;-81
2022/06/16 00:23:32;;;;;;;;;9.75;9.25;;;;;23.39;41.50;101446.78;6257904;22;45411;-82
2022/06/16 00:25:58;;;;;;;;;9.50;8.75;;;;;23.33;41.66;101454.22;6281619;22;45217;-83
2022/06/16 00:28:43;;;;;;;;;;;;;;;;;;;;;
2022/06/16 00:31:11;;;;;;;;;8.67;8.67;;;;;23.21;41.95;101452.06;6286148;22;74460;-84
2022/06/16 00:33:37;;;;;;;;;11.00;10.00;;;;;23.17;42.44;101453.16;6265012;22;45230;-82
2022/06/16 00:36:18;;;;;;;;;13.50;13.00;;;;;23.10;42.43;101454.38;6294668;22;45373;-82
2022/06/16 00:38:46;;;;;;;;;14.00;12.50;;;;;23.06;42.46;101456.31;6290081;22;45082;-84
2022/06/16 00:41:12;;;;;;;;;10.50;10.25;;;;;23.03;42.67;101461.81;6229603;22;46890;-84
2022/06/16 00:43:39;;;;;;;;;11.00;10.00;;;;;23.01;42.91;101466.38;6250784;22;45268;-82
2022/06/16 00:46:28;;;;;;;;;10.00;10.00;;;;;22.96;42.47;101468.44;6221190;22;45230;-83
2022/06/16 00:48:58;;;;;;;;;10.25;9.75;;;;;22.93;42.73;101468.50;6248145;22;45599;-83
2022/06/16 00:51:36;;;;;;;;;11.50;10.25;;;;;22.93;42.96;101464.94;6248276;22;45197;-84
2022/06/16 00:54:26;;;;;;;;;11.25;10.00;;;;;22.88;43.08;101474.09;6246142;22;45197;-83
2022/06/16 00:57:06;;;;;;;;;13.25;12.25;;;;;22.85;43.20;101467.97;6226759;22;45189;-83
2022/06/16 00:59:32;;;;;;;;;11.25;8.75;;;;;22.83;43.04;101472.56;6220344;22;45231;-83
2022/06/16 01:02:03;;;;;;;;;11.00;8.25;;;;;22.81;43.40;101479.78;6220673;22;46898;-83
2022/06/16 01:07:22;;;;;;;;;13.75;11.75;;;;;22.70;43.63;101488.31;6248140;22;45281;-83
2022/06/16 01:09:51;;;;;;;;;13.00;10.75;;;;;22.66;43.52;101498.28;6220166;22;45416;-82
2022/06/16 01:15:49;;;;;;;;;10.00;10.00;;;;;22.55;43.61;101503.22;6247688;22;45272;-83
2022/06/16 01:18:34;;;;;;;;;10.00;10.00;;;;;22.54;43.61;101506.00;6248022;22;45238;-83
2022/06/16 01:21:05;;;;;;;;;12.75;11.25;;;;;22.51;44.00;101508.78;6248015;22;45276;-84
2022/06/16 01:23:48;;;;;;;;;13.50;13.25;;;;;22.46;44.02;101506.31;6220253;22;47457;-84
2022/06/16 01:26:38;;;;;;;;;11.25;9.75;;;;;22.42;44.17;101512.72;6248706;22;45244;-84
2022/06/16 01:29:42;;;;;;;;;11.75;11.25;;;;;22.34;44.10;101521.09;6221568;22;45410;-83
2022/06/16 01:32:12;;;;;;;;;11.00;10.00;;;;;22.30;44.46;101516.78;6205207;22;45690;-85
2022/06/16 01:34:58;;;;;;;;;12.25;12.25;;;;;22.27;44.58;101519.59;6248792;22;46438;-84
2022/06/16 01:38:00;;;;;;;;;11.00;11.00;;;;;22.24;44.63;101527.78;6250006;22;45137;-85
2022/06/16 01:40:49;;;;;;;;;12.75;10.00;;;;;22.21;44.59;101522.50;6267987;22;45134;-85
2022/06/16 01:43:32;;;;;;;;;15.00;13.50;;;;;22.19;44.72;101536.00;6251277;22;45496;-85
2022/06/16 01:46:12;;;;;;;;;12.25;10.75;;;;;22.15;44.54;101528.97;6278248;22;46489;-85
2022/06/16 01:48:42;;;;;;;;;12.00;12.00;;;;;22.11;44.81;101532.72;6278864;22;45347;-84
2022/06/16 01:51:30;;;;;;;;;13.00;11.00;;;;;22.09;44.94;101533.72;6278766;22;45257;-85
2022/06/16 01:54:13;;;;;;;;;13.50;13.00;;;;;22.02;45.04;101533.06;6278682;22;45336;-85
2022/06/16 01:56:45;;;;;;;;;12.00;12.00;;;;;21.98;45.31;101536.81;6250593;22;46950;-85
2022/06/16 01:59:54;;;;;;;;;14.50;13.00;;;;;21.91;45.23;101541.50;6250670;22;45506;-84
2022/06/16 02:02:32;;;;;;;;;13.75;12.75;;;;;21.90;45.55;101546.94;6259978;22;45420;-85
2022/06/16 02:05:05;;;;;;;;;15.75;13.75;;;;;21.87;45.86;101544.41;6278315;22;45280;-84
2022/06/16 02:08:06;;;;;;;;;15.00;13.50;;;;;21.86;45.76;101551.53;6250828;22;46962;-85
2022/06/16 02:10:39;;;;;;;;;13.25;13.25;;;;;21.86;45.93;101556.91;6267087;22;45222;-85
2022/06/16 02:13:07;;;;;;;;;14.00;13.00;;;;;21.85;45.89;101562.34;6250297;22;45189;-85
2022/06/16 02:15:42;;;;;;;;;12.50;10.50;;;;;21.84;46.02;101557.88;6251220;22;45247;-85
2022/06/16 02:18:11;;;;;;;;;11.75;11.75;;;;;21.83;46.10;101556.16;6249853;22;47362;-84
2022/06/16 02:21:05;;;;;;;;;15.00;13.50;;;;;21.80;46.08;101559.81;6250120;22;45268;-85
2022/06/16 02:23:36;;;;;;;;;11.50;10.00;;;;;21.77;46.23;101560.81;6278755;22;45239;-85
2022/06/16 02:26:05;;;;;;;;;10.00;10.00;;;;;21.75;46.34;101561.78;6278722;22;45149;-84
2022/06/16 02:28:54;;;;;;;;;12.75;12.75;;;;;21.71;46.08;101555.69;6276824;22;47094;-85
2022/06/16 02:31:52;;;;;;;;;10.75;10.25;;;;;21.69;46.41;101551.31;6250306;22;45205;-85
2022/06/16 02:34:25;;;;;;;;;12.75;12.50;;;;;21.65;46.63;101558.59;6251282;22;45272;-84
2022/06/16 02:37:19;;;;;;;;;13.75;12.75;;;;;21.63;46.55;101555.09;6280478;22;45204;-83
2022/06/16 02:40:16;;;;;;;;;17.00;14.75;;;;;21.62;46.98;101556.00;6241898;22;47977;-85
2022/06/16 02:43:18;;;;;;;;;15.25;15.25;;;;;21.60;46.68;101557.91;6232599;22;45109;-81
2022/06/16 02:45:48;;;;;;;;;15.00;14.25;;;;;21.57;46.50;101558.88;6235494;22;44677;-83
2022/06/16 02:48:41;;;;;;;;;11.50;11.50;;;;;21.56;46.75;101567.81;6248227;22;45157;-84
2022/06/16 02:51:12;;;;;;;;;13.00;13.00;;;;;21.52;46.77;101563.53;6248071;22;46191;-84
2022/06/16 02:54:07;;;;;;;;;11.50;11.25;;;;;21.49;47.04;101563.66;6220927;22;45468;-83
2022/06/16 02:56:39;;;;;;;;;11.00;10.75;;;;;21.48;47.14;101566.38;6220939;22;45344;-84
2022/06/16 02:59:11;;;;;;;;;14.75;11.75;;;;;21.44;47.08;101570.97;6221473;22;45423;-83
2022/06/16 03:01:43;;;;;;;;;15.50;15.25;;;;;21.41;47.07;101573.75;6247903;22;46282;-83
2022/06/16 03:04:18;;;;;;;;;16.75;13.75;;;;;21.39;46.99;101567.56;6220235;22;45755;-84
2022/06/16 03:06:57;;;;;;;;;14.25;14.00;;;;;21.35;47.50;101573.94;6246867;22;45298;-84
2022/06/16 03:09:26;;;;;;;;;14.00;14.00;;;;;21.30;47.48;101570.53;6247782;22;45115;-83
2022/06/16 03:11:57;;;;;;;;;14.25;14.00;;;;;21.29;47.44;101571.47;6221063;22;46226;-84
2022/06/16 03:14:26;;;;;;;;;16.75;14.50;;;;;21.26;47.65;101580.50;6247255;22;45178;-83
2022/06/16 03:16:59;;;;;;;;;14.25;13.50;;;;;21.24;47.49;101579.66;6220629;22;45434;-84
2022/06/16 03:19:28;;;;;;;;;15.50;15.00;;;;;21.23;47.38;101585.09;6221157;22;45216;-84
2022/06/16 03:21:59;;;;;;;;;17.25;15.00;;;;;21.19;47.74;101586.09;6248496;22;45763;-84
2022/06/16 03:27:11;;;;;;;;;13.75;13.75;;;;;21.15;47.69;101588.03;6248132;22;45374;-84
2022/06/16 03:29:40;;;;;;;;;21.50;19.25;;;;;21.11;47.61;101589.91;6246118;22;45364;-84
2022/06/16 03:32:14;;;;;;;;;18.00;16.50;;;;;21.08;47.76;101595.38;6248132;22;46138;-84
2022/06/16 03:34:39;;;;;;;;;16.50;15.75;;;;;21.04;47.91;101591.06;6248534;22;45162;-84
2022/06/16 03:37:16;;;;;;;;;15.50;15.25;;;;;20.99;47.86;101597.50;6248531;22;45835;-84
2022/06/16 03:39:41;;;;;;;;;15.50;14.50;;;;;20.93;48.33;101599.47;6228606;22;45180;-84
2022/06/16 03:42:10;;;;;;;;;16.25;15.00;;;;;20.87;48.16;101594.28;6251304;22;46974;-85
2022/06/16 03:44:35;;;;;;;;;17.00;17.00;;;;;20.85;48.08;101596.16;6279563;22;45256;-83
2022/06/16 03:47:01;;;;;;;;;15.50;15.50;;;;;20.84;48.17;101596.19;6277432;22;45605;-83
2022/06/16 03:49:26;;;;;;;;;17.25;17.25;;;;;20.82;48.32;101593.59;6251887;22;45550;-83
2022/06/16 03:51:51;;;;;;;;;15.00;14.75;;;;;20.80;48.29;101595.44;6251454;22;47502;-84
2022/06/16 03:57:45;;;;;;;;;15.75;14.75;;;;;20.70;48.38;101602.88;6261787;22;45390;-84
2022/06/16 04:00:17;;;;;;;;;16.00;15.00;;;;;;;;6251089;22;45353;-84
2022/06/16 04:02:43;;;;;;;;;20.50;16.75;;;;;20.60;48.67;101611.25;6251533;22;47033;-85
2022/06/16 04:05:16;;;;;;;;;16.75;15.75;;;;;20.61;48.91;101607.63;6250107;22;45276;-83
2022/06/16 04:07:44;;;;;;;;;15.50;15.50;;;;;20.59;48.63;101599.66;6251728;22;45323;-83
2022/06/16 04:10:42;;;;;;;;;17.00;15.50;;;;;20.60;48.69;101605.91;6276874;22;45491;-84
2022/06/16 04:13:14;;;;;;;;;16.00;14.75;;;;;20.59;48.79;101601.47;6249128;22;47367;-83
2022/06/16 04:15:42;;;;;;;;;13.50;13.50;;;;;20.57;48.56;101603.31;6250566;22;45360;-82
2022/06/16 04:18:23;;;;;;;;;17.00;17.00;;;;;20.57;48.88;101603.31;6251096;22;45270;-83
2022/06/16 04:20:49;;;;;;;;;17.75;15.75;;;;;20.57;48.61;101608.66;6279335;22;45295;-85
2022/06/16 04:23:14;;;;;;;;;18.25;15.75;;;;;20.55;49.05;101610.50;6251577;22;46883;-86
2022/06/16 04:25:47;;;;;;;;;21.00;17.00;;;;;20.53;48.96;101615.00;6251152;22;45205;-83
2022/06/16 04:28:15;;;;;;;;;15.50;15.00;;;;;20.49;49.01;101623.13;6252005;22;45415;-83
2022/06/16 04:30:44;;;;;;;;;15.00;14.75;;;;;20.49;49.05;101625.78;6251539;22;45302;-84
2022/06/16 04:33:09;;;;;;;;;14.25;14.00;;;;;20.47;49.17;101622.31;6279776;22;46198;-85
2022/06/16 04:35:37;;;;;;;;;15.00;14.25;;;;;20.47;48.82;101625.00;6250619;22;45391;-84
2022/06/16 04:38:05;;;;;;;;;15.75;15.25;;;;;20.47;48.94;101638.38;6279022;22;45398;-84
2022/06/16 04:40:30;;;;;;;;;18.50;17.00;;;;;20.48;49.34;101640.09;6278470;22;45177;-84
2022/06/16 04:42:56;;;;;;;;;15.75;13.75;;;;;20.47;48.91;101645.50;6278332;22;45169;-83
2022/06/16 04:46:08;;;;;;;;;11.50;11.50;;;;;20.47;48.97;101642.81;6279181;22;45187;-88
2022/06/16 04:48:34;;;;;;;;;15.00;15.00;;;;;20.47;49.39;101640.13;6251484;22;45367;-89
2022/06/16 04:51:03;;;;;;;;;18.25;18.00;;;;;20.48;49.05;101645.47;6277024;22;45185;-87
2022/06/16 04:53:28;;;;;;;;;9.00;8.00;;;;;20.48;49.03;101645.47;6251048;22;47362;-87
2022/06/16 04:56:00;;;;;;;;;12.75;12.75;;;;;20.47;49.49;101645.50;6250251;22;45357;-87
2022/06/16 04:58:29;;;;;;;;;17.25;16.00;;;;;20.46;49.41;101655.31;6255396;22;45180;-88
2022/06/16 05:01:16;;;;;;;;;18.50;15.00;;;;;20.46;49.16;101660.66;6278914;22;45709;-88
2022/06/16 05:03:51;;;;;;;;;18.50;18.00;;;;;20.48;49.46;101668.66;6276514;22;46452;-87
2022/06/16 05:06:23;;;;;;;;;18.00;17.75;;;;;20.48;49.34;101663.31;6276809;22;45449;-87
2022/06/16 05:08:48;;;;;;;;;18.50;17.00;;;;;20.47;49.04;101667.78;6252101;22;45185;-87
2022/06/16 05:11:18;;;;;;;;;18.00;17.00;;;;;20.47;49.56;101670.47;6252021;22;45282;-87
2022/06/16 05:13:43;;;;;;;;;19.50;15.75;;;;;20.45;49.59;101674.97;6264386;22;47109;-84
2022/06/16 05:16:09;;;;;;;;;16.75;15.25;;;;;20.44;49.13;101681.22;6275168;22;44745;-86
2022/06/16 05:18:34;;;;;;;;;17.75;17.25;;;;;20.48;49.81;101688.25;6265605;22;45173;-86
2022/06/16 05:21:07;;;;;;;;;17.00;15.25;;;;;20.48;49.44;101682.91;6251413;22;45844;-88
2022/06/16 05:23:33;;;;;;;;;18.00;16.75;;;;;20.49;49.09;101694.47;6279505;22;46424;-87
2022/06/16 05:25:59;;;;;;;;;16.25;14.25;;;;;20.45;48.88;101693.72;6252793;22;45842;-87
2022/06/16 05:28:24;;;;;;;;;19.00;17.00;;;;;20.43;49.25;101711.59;6284857;22;45374;-87
2022/06/16 05:30:50;;;;;;;;;15.75;15.75;;;;;20.40;49.35;101711.69;6283235;22;44620;-87
2022/06/16 05:33:15;;;;;;;;;20.50;19.00;;;;;20.36;49.30;101709.13;6280281;22;47180;-87
2022/06/16 05:35:41;;;;;;;;;15.75;14.75;;;;;20.38;49.67;101718.88;6251494;22;45273;-87
2022/06/16 05:38:06;;;;;;;;;18.75;17.75;;;;;20.39;49.03;101728.63;6280061;22;45074;-87
2022/06/16 05:40:32;;;;;;;;;19.00;19.00;;;;;20.39;49.28;101727.75;6279081;22;45129;-87
2022/06/16 05:42:57;;;;;;;;;17.50;15.75;;;;;20.38;49.27;101734.06;6279616;22;46239;-86
2022/06/16 05:45:23;;;;;;;;;16.25;14.25;;;;;20.38;49.45;101737.59;6251275;22;45231;-87
2022/06/16 05:47:48;;;;;;;;;19.00;17.25;;;;;20.39;49.63;101739.34;6251979;22;45229;-86
2022/06/16 05:50:16;;;;;;;;;17.25;15.50;;;;;20.39;48.92;101736.66;6251959;22;45294;-86
2022/06/16 05:52:42;;;;;;;;;18.00;13.25;;;;;20.42;49.24;101738.38;6251503;22;48501;-87
2022/06/16 05:55:14;;;;;;;;;20.25;18.50;;;;;20.44;49.24;101741.88;6250993;22;45258;-87
2022/06/16 05:57:39;;;;;;;;;17.75;16.50;;;;;20.46;48.86;101748.06;6251234;22;45241;-87
2022/06/16 06:00:08;;;;;;;;;19.25;19.00;;;;;20.50;49.09;101747.06;6277176;22;45434;-87
2022/06/16 06:02:33;;;;;;;;;18.75;17.50;;;;;20.53;48.88;101746.09;6278790;22;47424;-86
2022/06/16 06:04:59;;;;;;;;;18.00;17.50;;;;;20.55;48.85;101753.19;6250633;22;45375;-86
2022/06/16 06:07:24;;;;;;;;;19.00;15.50;;;;;20.57;48.65;101751.34;6252667;22;45271;-85
2022/06/16 06:17:44;;;;;;;;;20.50;19.25;;;;;20.60;48.75;101756.59;6278986;22;45303;-85
2022/06/16 06:20:10;;;;;;;;;17.00;16.25;;;;;20.64;48.79;101760.97;6251061;22;45450;-86
2022/06/16 06:22:35;;;;;;;;;20.50;20.50;;;;;20.66;48.91;101759.13;6253663;22;47354;-85
2022/06/16 06:25:01;;;;;;;;;20.25;20.00;;;;;20.71;48.65;101767.00;6252579;22;45207;-86
2022/06/16 06:27:34;;;;;;;;;23.00;21.50;;;;;20.77;48.67;101765.94;6281619;22;45163;-86
2022/06/16 06:30:04;;;;;;;;;17.50;16.25;;;;;20.81;48.53;101768.47;6256219;22;46030;-86
2022/06/16 06:32:30;;;;;;;;;22.75;22.00;;;;;20.85;48.23;101774.59;6282633;22;45363;-86
2022/06/16 06:34:56;;;;;;;;;18.00;18.00;;;;;20.88;48.36;101778.09;6253104;22;45383;-86
2022/06/16 06:37:24;;;;;;;;;20.00;19.50;;;;;20.90;47.92;101783.38;6280166;22;45291;-86
2022/06/16 06:39:51;;;;;;;;;18.50;18.50;;;;;20.93;47.99;101791.34;6250964;22;45241;-85
2022/06/16 06:42:16;;;;;;;;;22.00;19.75;;;;;20.96;47.99;101785.03;6278959;22;45447;-86
2022/06/16 06:44:43;;;;;;;;;23.50;22.00;;;;;20.98;47.72;101789.38;6277315;22;45138;-86
2022/06/16 06:47:24;;;;;;;;;17.00;16.00;;;;;21.01;47.36;101789.31;6251444;22;45189;-86
2022/06/16 06:49:50;;;;;;;;;18.50;18.25;;;;;21.05;47.43;101790.94;6250669;22;45492;-86
2022/06/16 06:52:17;;;;;;;;;19.25;16.75;;;;;21.10;47.23;101793.50;6250874;22;46980;-86
2022/06/16 06:54:43;;;;;;;;;19.00;18.75;;;;;21.13;46.94;101783.56;6278818;22;45228;-86
2022/06/16 06:57:11;;;;;;;;;18.00;18.00;;;;;21.21;47.33;101799.38;6278854;22;45170;-86
2022/06/16 06:59:40;;;;;;;;;17.00;16.25;;;;;21.28;46.74;101797.41;6250283;22;45485;-86
2022/06/16 07:02:06;;;;;;;;;17.75;17.75;;;;;21.35;46.59;101804.31;6277865;22;45189;-86
2022/06/16 07:04:31;;;;;;;;;15.25;15.00;;;;;21.42;46.27;101805.91;6277853;22;45188;-86
2022/06/16 07:06:56;;;;;;;;;13.75;12.75;;;;;21.49;46.03;101803.91;6250321;22;45270;-86
2022/06/16 07:09:22;;;;;;;;;15.50;14.00;;;;;21.55;46.01;101793.00;6275813;22;45350;-87
2022/06/16 07:11:51;;;;;;;;;18.00;16.25;;;;;21.60;45.80;101804.44;6275747;22;47133;-87
2022/06/16 07:14:17;;;;;;;;;17.25;15.25;;;;;21.69;45.65;101813.97;6249952;22;45368;-89
2022/06/16 07:16:43;;;;;;;;;15.50;13.50;;;;;21.76;45.35;101812.88;6276732;22;45391;-87
2022/06/16 07:19:09;;;;;;;;;17.50;15.00;;;;;21.84;45.06;101823.31;6250713;22;45354;-87
2022/06/16 07:21:34;;;;;;;;;13.50;12.75;;;;;21.91;45.20;101828.41;6277906;22;45607;-87
2022/06/16 07:24:00;;;;;;;;;15.25;14.00;;;;;21.99;44.47;101836.19;6275943;22;45587;-87
2022/06/16 07:26:25;;;;;;;;;14.50;13.50;;;;;22.06;44.65;101837.75;6250681;22;45137;-88
2022/06/16 07:28:57;;;;;;;;;10.75;10.50;;;;;22.13;44.01;101842.00;6276002;22;45162;-88
2022/06/16 07:31:22;;;;;;;;;13.75;13.00;;;;;22.21;43.66;101828.31;6277553;22;45401;-88
2022/06/16 07:33:47;;;;;;;;;19.75;17.00;;;;;22.28;44.00;101829.88;6277538;22;45355;-87
2022/06/16 07:36:13;;;;;;;;;11.00;11.00;;;;;22.36;43.47;101835.84;6250391;22;45301;-88
2022/06/16 07:38:38;;;;;;;;;12.75;11.00;;;;;22.45;43.13;101838.22;6251208;22;45551;-88
2022/06/16 07:41:46;;;;;;;;;10.50;10.25;;;;;22.55;42.90;101844.09;6279590;22;48535;-87
2022/06/16 07:43:55;;;;;;;;;9.50;9.50;;;;;22.65;42.45;101844.66;6287354;22;45244;-87
2022/06/16 07:46:21;;;;;;;;;11.25;11.25;;;;;22.73;42.04;101841.69;6292058;22;45248;-87
2022/06/16 07:48:46;;;;;;;;;10.75;9.75;;;;;22.79;41.43;101841.44;6277094;22;45485;-87
2022/06/16 07:51:11;;;;;;;;;9.25;9.25;;;;;22.84;41.63;101845.72;6251375;22;47819;-87
2022/06/16 07:53:37;;;;;;;;;13.00;10.50;;;;;22.90;41.39;101842.78;6279569;22;45390;-88
2022/06/16 08:03:22;;;;;;;;;;;;;;;;;;;;;
2022/06/16 08:10:33;;;;;;;;;;;;;;;;;;;;;
2022/06/16 08:13:27;;;;;;;;;9.33;9.33;;;;;23.63;39.46;101840.00;6153139;23;71645;-88
2022/06/16 08:16:25;;;;;;;;;9.25;7.50;;;;;23.73;38.99;101831.53;6070077;23;47095;-91
2022/06/16 08:19:07;;;;;;;;;;;;;;;;;;;;;
2022/06/16 08:21:36;;;;;;;;;10.00;10.00;;;;;23.96;38.68;101835.09;6094984;23;68720;-89
2022/06/16 08:24:06;;;;;;;;;17.00;16.00;;;;;24.08;37.92;101826.47;6104041;23;45603;-89
2022/06/16 08:26:36;;;;;;;;;10.50;10.00;;;;;24.21;37.36;101826.81;6231372;22;47555;-90
2022/06/16 08:29:11;;;;;;;;;8.50;8.50;;;;;24.32;36.98;101832.59;6250709;22;45472;-90
2022/06/16 08:31:50;;;;;;;;;10.50;9.00;;;;;24.43;36.84;101832.13;6252534;22;45294;-90
2022/06/16 08:34:55;;;;;;;;;;;;;;;;;;;;;
2022/06/16 08:40:41;;;;;;;;;8.25;7.00;;;;;24.76;35.20;101831.59;6261425;22;45366;-91
2022/06/16 08:43:37;;;;;;;;;7.75;7.50;;;;;24.86;35.49;101828.41;6249989;22;45196;-91
2022/06/16 08:51:19;;;;;;;;;;;;;;;;;;;;;
2022/06/16 08:53:26;;;;;;;;;10.33;8.00;;;;;25.20;34.08;101844.84;6253958;22;45197;-89
2022/06/16 08:56:43;;;;;;;;;;;;;;;;;;;;;
2022/06/16 09:00:18;;;;;;;;;;;;;;;;;;;;;
2022/06/16 09:03:11;;;;;;;;;7.00;7.00;;;;;25.43;33.39;101831.13;6277500;22;74181;-87
2022/06/16 09:06:11;;;;;;;;;6.33;6.33;;;;;25.56;32.97;101835.94;6251334;22;45374;-89
2022/06/16 09:08:55;;;;;;;;;8.00;6.33;;;;;25.65;32.88;101830.06;6244109;22;45462;-82
2022/06/16 09:11:33;;;;;;;;;;;;;;;;;;;;;
2022/06/16 09:15:10;;;;;;;;;7.67;6.33;;;;;25.77;32.65;101821.38;6274941;22;74323;-82
2022/06/16 09:17:30;;;;;;;;;7.00;6.00;;;;;25.85;31.97;101830.00;6274224;22;45710;-82
2022/06/16 09:20:11;;;;;;;;;6.00;6.00;;;;;25.93;31.62;101832.31;6247116;22;45308;-82
2022/06/16 09:22:55;;;;;;;;;6.67;5.67;;;;;26.04;31.92;101838.03;6276612;22;45311;-82
2022/06/16 09:25:54;;;;;;;;;5.67;5.00;;;;;26.11;31.27;101831.34;6248572;22;48410;-82
2022/06/16 09:28:37;;;;;;;;;6.00;6.00;;;;;26.18;31.83;101832.78;6274053;22;45359;-79
2022/06/16 09:31:08;;;;;;;;;6.00;6.00;;;;;26.27;31.26;101835.94;6276254;22;45323;-79
2022/06/16 09:33:39;;;;;;;;;7.33;7.33;;;;;26.32;31.02;101842.00;6276657;22;45313;-80
2022/06/16 09:36:11;;;;;;;;;8.00;7.00;;;;;26.37;30.53;101838.09;6275513;22;45304;-78
2022/06/16 09:39:06;;;;;;;;;6.33;6.33;;;;;26.44;31.12;101833.25;6247229;22;45929;-79
2022/06/16 09:45:01;;;;;;;;;5.67;5.00;;;;;26.66;30.76;101832.13;6277258;22;45335;-79
2022/06/16 09:47:33;;;;;;;;;10.67;9.00;;;;;26.74;30.34;101821.78;6276125;22;45919;-81
2022/06/16 09:50:12;;;;;;;;;4.00;4.00;;;;;26.78;30.17;101813.44;6247683;22;45367;-79
2022/06/16 09:52:50;;;;;;;;;7.00;7.00;;;;;26.81;29.89;101815.97;6276388;22;45278;-79
2022/06/16 09:55:30;;;;;;;;;6.67;6.67;;;;;26.83;29.90;101810.44;6276997;22;45299;-81
2022/06/16 09:58:09;;;;;;;;;8.33;8.00;;;;;26.90;30.06;101808.31;6275332;22;45703;-79
2022/06/16 10:00:34;;;;;;;;;7.00;7.00;;;;;27.03;29.60;101809.38;6273204;22;45289;-79
2022/06/16 10:03:12;;;;;;;;;5.00;5.00;;;;;27.12;29.26;101806.13;6248138;22;45425;-79
2022/06/16 10:05:49;;;;;;;;;6.33;6.33;;;;;27.21;29.66;101811.06;6247926;22;45296;-80
2022/06/16 10:08:26;;;;;;;;;7.00;6.00;;;;;27.33;29.15;101820.31;6247725;22;46423;-79
2022/06/16 10:11:02;;;;;;;;;5.33;5.33;;;;;27.38;29.09;101817.34;6276535;22;45241;-80
2022/06/16 10:13:47;;;;;;;;;7.00;6.00;;;;;27.37;29.13;101819.19;6247695;22;45321;-82
2022/06/16 10:16:22;;;;;;;;;6.67;6.00;;;;;27.40;28.92;101812.69;6248175;22;45357;-81
2022/06/16 10:18:49;;;;;;;;;9.00;9.00;;;;;27.45;28.38;101813.31;6246373;22;47388;-81
2022/06/16 10:21:16;;;;;;;;;6.67;5.00;;;;;27.53;28.81;101816.44;6274212;22;45733;-80
2022/06/16 10:23:50;;;;;;;;;6.33;6.33;;;;;27.62;28.54;101824.03;6273927;22;45349;-80
2022/06/16 10:26:15;;;;;;;;;7.00;6.67;;;;;27.67;28.48;101819.22;6274116;22;45631;-80
2022/06/16 10:28:59;;;;;;;;;8.33;8.33;;;;;27.69;28.26;101827.25;6276170;22;46106;-80
2022/06/16 10:31:43;;;;;;;;;5.00;5.00;;;;;27.71;27.84;101820.78;6247665;22;46292;-79
2022/06/16 10:34:27;;;;;;;;;6.33;6.33;;;;;27.74;27.88;101811.59;6248243;22;45283;-79
2022/06/16 10:37:08;;;;;;;;;5.00;5.00;;;;;27.83;28.23;101815.66;6274288;22;45312;-80
2022/06/16 10:40:05;;;;;;;;;4.00;4.00;;;;;27.87;27.89;101814.50;6275121;22;45322;-80
2022/06/16 10:42:40;;;;;;;;;8.33;6.33;;;;;27.91;27.36;101802.53;6275039;22;45201;-83
2022/06/16 10:45:05;;;;;;;;;3.67;3.67;;;;;27.98;27.40;101801.19;6276046;22;45524;-81
2022/06/16 10:47:51;;;;;;;;;6.67;6.67;;;;;28.06;27.46;101795.31;6248752;22;45226;-81
2022/06/16 10:50:30;;;;;;;;;6.00;6.00;;;;;28.17;27.07;101784.69;6249409;22;46878;-80
2022/06/16 10:53:26;;;;;;;;;4.00;4.00;;;;;28.31;27.55;101794.69;6276001;22;45752;-80
2022/06/16 10:55:57;;;;;;;;;6.33;6.33;;;;;28.43;26.81;101806.59;6250807;22;45279;-84
2022/06/16 10:58:26;;;;;;;;;6.67;6.67;;;;;28.57;26.27;101806.63;6284100;22;45192;-82
2022/06/16 11:01:15;;;;;;;;;7.00;7.00;;;;;28.77;26.35;101802.69;6287446;22;45374;-80
2022/06/16 11:03:54;;;;;;;;;6.33;6.33;;;;;29.03;26.24;101795.59;6270642;22;44887;-81
2022/06/16 11:06:31;;;;;;;;;4.00;4.00;;;;;29.27;26.05;101804.00;6299586;22;44562;-81
2022/06/16 11:09:03;;;;;;;;;9.33;7.00;;;;;29.51;26.34;101803.31;6268005;22;45291;-83
2022/06/16 11:11:40;;;;;;;;;7.00;5.67;;;;;29.78;26.46;101804.22;6256353;22;47483;-83
2022/06/16 11:14:17;;;;;;;;;7.00;5.67;;;;;30.07;25.88;101804.06;6277176;22;45417;-83
2022/06/16 11:16:53;;;;;;;;;5.33;5.33;;;;;30.20;25.26;101791.34;6251521;22;44736;-83
2022/06/16 11:19:36;;;;;;;;;7.00;6.00;;;;;30.35;25.44;101794.88;6279070;22;45371;-83
2022/06/16 11:22:15;;;;;;;;;6.33;6.00;;;;;30.53;25.46;101806.31;6251162;22;46760;-83
2022/06/16 11:24:55;;;;;;;;;5.00;5.00;;;;;30.68;25.54;101805.19;6251354;22;45187;-83
2022/06/16 11:27:23;;;;;;;;;5.00;5.00;;;;;30.78;24.88;101810.84;6250785;22;45284;-83
2022/06/16 11:29:50;;;;;;;;;10.67;7.67;;;;;30.82;24.64;101811.50;6250864;22;45744;-83
2022/06/16 11:32:19;;;;;;;;;5.67;5.67;;;;;30.91;25.07;101806.28;6278675;22;45457;-83
2022/06/16 11:34:47;;;;;;;;;6.50;6.50;;;;;31.09;25.24;101800.47;6250254;22;45289;-82
2022/06/16 11:37:41;;;;;;;;;7.75;7.75;;;;;31.32;25.07;101801.50;6278640;22;45389;-82
2022/06/16 11:40:19;;;;;;;;;5.33;5.33;;;;;31.49;24.40;101798.41;6249402;22;45379;-82
2022/06/16 11:42:44;;;;;;;;;6.00;6.00;;;;;31.67;23.85;101787.09;6250986;22;47890;-82
2022/06/16 11:45:34;;;;;;;;;8.00;7.33;;;;;31.70;23.78;101790.44;6251082;22;45356;-84
2022/06/16 11:48:14;;;;;;;;;7.00;7.00;;;;;31.74;23.58;101794.69;6278992;22;45153;-82
2022/06/16 11:51:07;;;;;;;;;8.33;8.00;;;;;31.72;23.88;101799.38;6250933;22;45414;-84
2022/06/16 11:53:47;;;;;;;;;5.33;5.33;;;;;31.74;23.90;101808.31;6250811;22;48057;-82
2022/06/16 11:56:33;;;;;;;;;7.25;6.25;;;;;31.82;24.09;101799.53;6250922;22;45248;-81
2022/06/16 11:59:18;;;;;;;;;7.00;6.00;;;;;32.00;24.27;101814.50;6251220;22;45225;-83
2022/06/16 12:01:46;;;;;;;;;6.33;5.67;;;;;32.07;23.05;101793.09;6250962;22;45312;-82
2022/06/16 12:04:35;;;;;;;;;7.00;6.00;;;;;32.07;23.30;101787.63;6250569;22;47681;-82
2022/06/16 12:07:10;;;;;;;;;6.33;6.33;;;;;32.19;23.58;101785.81;6281062;22;45197;-82
2022/06/16 12:09:58;;;;;;;;;7.50;5.50;;;;;32.19;23.08;101783.97;6253622;22;45228;-81
2022/06/16 12:13:02;;;;;;;;;5.75;5.75;;;;;32.32;23.93;101788.41;6250922;22;46040;-83
2022/06/16 12:15:40;;;;;;;;;9.00;7.00;;;;;32.42;23.38;101787.56;6259736;22;48404;-82
2022/06/16 12:18:24;;;;;;;;;5.00;5.00;;;;;32.54;23.18;101791.22;6260683;22;45446;-81
2022/06/16 12:21:13;;;;;;;;;7.75;7.75;;;;;32.61;23.13;101795.19;6255531;22;45163;-80
2022/06/16 12:23:51;;;;;;;;;6.50;6.25;;;;;32.64;23.09;101788.59;6255019;22;45415;-82
2022/06/16 12:27:18;;;;;;;;;4.67;4.00;;;;;32.62;22.57;101788.75;6289850;22;46114;-86
2022/06/16 12:30:07;;;;;;;;;5.67;5.67;;;;;32.63;22.69;101784.16;6248663;22;45335;-86
2022/06/16 12:33:22;;;;;;;;;7.00;7.00;;;;;32.72;22.31;101777.97;6282378;22;45322;-85
2022/06/16 12:36:19;;;;;;;;;7.50;6.50;;;;;32.89;22.57;101782.03;6099459;23;46258;-86
2022/06/16 12:38:47;;;;;;;;;5.50;5.50;;;;;33.01;22.23;101769.25;6225766;22;47403;-85
2022/06/16 12:41:32;;;;;;;;;7.25;6.50;;;;;33.15;22.43;101761.69;6250695;22;45217;-85
2022/06/16 12:44:04;;;;;;;;;7.00;7.00;;;;;33.32;22.81;101759.41;6278885;22;45200;-85
2022/06/16 12:46:52;;;;;;;;;;;;;;;;;;;;;
2022/06/16 12:49:34;;;;;;;;;6.50;6.50;;;;;33.41;21.90;101750.41;6277800;22;74254;-85
2022/06/16 12:52:05;;;;;;;;;6.00;6.00;;;;;33.42;21.99;101749.44;6278702;22;45402;-85